Friday, May 25, 2018, 8:58 AM EDT
Back to Local

KGNR, Greenville

Location: Greenville, ME, United States Lat: 45.467
Local Time: 8:58 AM EDT (12:58 GMT) Lon: -69.583
Time Zone: US/Eastern Elev: 1400 ft

Show me the last for .
Show Decoded

2018-05-25 07:56 METAR KGNR 251156Z AUTO VRB04KT 20/09 A2969 RMK AO1 SLP053 T02000089 10200 20078
                 58005 =
2018-05-25 06:56 METAR KGNR 251056Z AUTO VRB03KT 18/07 A2970 RMK AO1 SLP057 T01780072 =
2018-05-25 05:56 METAR KGNR 250956Z AUTO 30008KT 17/06 A2971 RMK AO1 SLP060 T01670061 =
2018-05-25 04:56 METAR KGNR 250856Z AUTO VRB03G15KT 15/05 A2971 RMK AO1 SLP060 T01500050 56030 =
2018-05-25 03:56 METAR KGNR 250756Z AUTO 20003KT 11/05 A2974 RMK AO1 SLP070 T01060050 =
2018-05-25 02:56 METAR KGNR 250656Z AUTO VRB03KT 08/07 A2976 RMK AO1 SLP082 T00780072 =
2018-05-25 01:56 METAR KGNR 250556Z AUTO 12007KT 09/08 A2980 RMK AO1 SLP094 T00890078 10156 20089
                 58038 =
2018-05-25 00:56 METAR KGNR 250456Z AUTO 13006KT 09/08 A2984 RMK AO1 SLP109 T00940078 401830039 =
2018-05-24 23:56 METAR KGNR 250356Z AUTO 14006KT 11/07 A2988 RMK AO1 SLP121 T01110067 =
2018-05-24 22:56 METAR KGNR 250256Z AUTO 00000KT 14/01 A2991 RMK AO1 SLP133 T01390011 58009 =
2018-05-24 21:56 METAR KGNR 250156Z AUTO VRB03KT 14/01 A2994 RMK AO1 SLP141 T01440011 =
2018-05-24 20:56 METAR KGNR 250056Z AUTO VRB03KT 15/01 A2994 RMK AO1 SLP143 T01500006 =
2018-05-24 19:56 METAR KGNR 242356Z AUTO VRB04KT 16/01 A2994 RMK AO1 SLP145 T01560006 10183 20156
                 55004 =
2018-05-24 18:56 METAR KGNR 242256Z AUTO VRB06KT 16/M01 A2994 RMK AO1 SLP144 T01611006 =
2018-05-24 17:56 METAR KGNR 242156Z AUTO 30005KT 17/M02 A2995 RMK AO1 SLP147 T01671022 =
2018-05-24 16:56 METAR KGNR 242056Z AUTO 30006KT 17/M03 A2996 RMK AO1 SLP151 T01721028 56013 =
2018-05-24 15:56 METAR KGNR 241956Z AUTO VRB05KT 18/M03 A2997 RMK AO1 SLP154 T01831033 =
2018-05-24 14:56 METAR KGNR 241856Z AUTO 35009KT 17/M02 A2998 RMK AO1 SLP157 T01721017 =
2018-05-24 13:56 METAR KGNR 241756Z AUTO 31009G16KT 16/M03 A3000 RMK AO1 SLP163 T01611028 10167
                 20089 58019 =
2018-05-24 12:56 METAR KGNR 241656Z AUTO 29009G15KT 16/M02 A3002 RMK AO1 SLP172 T01561017 =
2018-05-24 11:56 METAR KGNR 241556Z AUTO 34007KT 14/00 A3004 RMK AO1 SLP179 T01440000 =
2018-05-24 10:56 METAR KGNR 241456Z AUTO 01009KT 13/M01 A3005 RMK AO1 SLP184 T01331011 50001 =
2018-05-24 09:56 METAR KGNR 241356Z AUTO VRB04KT 12/M01 A3005 RMK AO1 SLP185 T01171006 =

Support USWX by starting your Amazon purchase here.